Details From KCOF - Patrick Afb
To KBOW - Bartow Muni
Flight Number -
Tags Decoded
Created
Modified
Stats Distance 272 nm / 503 km
Max Altitude 0 ft / 0 m
Waypoints 4
Social Downloads 0
Likes 0
Share VATSIM

Download

Looking for another format? Having issues loading an existing format? Contact us
Advertisement - Login to hide

Notes

Decoded

Route

KCOF KTPF X26 KBOW

ID Type Via Altitude Latitude Longitude Leg Dist Tot Dist Heading (true) Name
O KCOF APT - 0 ft / 0 m 28.24140˚ -80.61533˚ - 0 nm - -
KTPF APT - 0 ft / 0 m 27.91996˚ -82.44812˚ 99 nm 99 nm 259° / 258° Peter O Knight
X26 APT - 0 ft / 0 m 27.81405˚ -80.50013˚ 103 nm 202 nm 93° / 94° SEBASTIAN MUNI
O KBOW APT - 0 ft / 0 m 27.93601˚ -81.79183˚ 68 nm 271 nm 276° / 276° -

Altitude Profile

Advertisement - Login to hide

Weather


0- 5 10 15 20 25 30 35+ Temperature / ° C

Clouds and Precipitation
Forecast for 2017-12-18 18:00 UTC. Updated 2 hours ago

Ground ~20,000 ft ~40,000 ft Winds

KCOF

Details ICAO KCOF (COF)
Name Patrick AFB
Region United States
Timezone America/New_York (UTC-5.0)
Stats Elevation 8 ft / 2 m (AMSL)
Location 28.236330° -80.609810°
Runways 2
Magnetic Variation 6.812° W

METAR

KCOF 181858Z AUTO 09007KT 10SM CLR 25/21 A3019 RMK AO2 DZB49E54 SLP228 P0000 T02500214 $

Decode

TAF

TAF KCOF 181900Z 1819/2001 VRB06KT 9999 FEW035 FEW280 QNH3014INS TEMPO 1909/1912 4800 BR SCT005 BECMG 1913/1914 33006KT 9999 FEW030 QNH3018INS TX26/1918Z TN18/1911Z FCST BY USAF WX MET TECH

Decode

Departure Runways

ID Width Length Bearing (true) Bearing (mag) Surface Threshold Offset Overrun Length
02 200 ft / 61 m 9,050 ft / 2,759 m 19.82° 26.63° Asphalt 0 ft / 0 m 1,000 ft / 305 m
11 200 ft / 61 m 3,999 ft / 1,219 m 106.19° 113.00° Asphalt 0 ft / 0 m 300 ft / 91 m
20 200 ft / 61 m 9,050 ft / 2,759 m 199.83° 206.64° Asphalt 0 ft / 0 m 1,700 ft / 518 m
29 200 ft / 61 m 3,999 ft / 1,219 m 286.20° 293.01° Asphalt 300 ft / 91 m 0 ft / 0 m

KBOW

Details ICAO KBOW (BOW)
Name Bartow Muni
Region United States
Timezone America/New_York (UTC-5.0)
Stats Elevation 125 ft / 38 m (AMSL)
Location 27.943063° -81.783670°
Runways 3
Magnetic Variation 6.029° W

METAR

KBOW 181845Z 30006KT 10SM SCT035 27/17 A3021

Decode

TAF

Not found

Destination Runways

ID Width Length Bearing (true) Bearing (mag) Surface Threshold Offset Overrun Length
23 98 ft / 30 m 6,864 ft / 2,092 m 225.95° 231.98° Asphalt 299 ft / 91 m 0 ft / 0 m
27L 180 ft / 55 m 6,077 ft / 1,852 m 267.01° 273.04° Asphalt 299 ft / 91 m 200 ft / 61 m
27R 180 ft / 55 m 6,850 ft / 2,088 m 267.01° 273.04° Asphalt 299 ft / 91 m 200 ft / 61 m
5 98 ft / 30 m 6,864 ft / 2,092 m 45.95° 51.98° Asphalt 299 ft / 91 m 0 ft / 0 m
9L 180 ft / 55 m 6,850 ft / 2,088 m 87.00° 93.03° Asphalt 299 ft / 91 m 200 ft / 61 m
9R 180 ft / 55 m 6,077 ft / 1,852 m 87.00° 93.03° Asphalt 299 ft / 91 m 400 ft / 122 m